sensor_id;sensor_type;location;lat;lon;timestamp;temperature;humidity
71672;DHT22;67659;45.554;11.812;2024-03-02T00:00:22;12.90;99.90
71672;DHT22;67659;45.554;11.812;2024-03-02T00:02:50;13.00;99.90
71672;DHT22;67659;45.554;11.812;2024-03-02T00:05:19;13.00;99.90
71672;DHT22;67659;45.554;11.812;2024-03-02T00:07:59;13.00;99.90
71672;DHT22;67659;45.554;11.812;2024-03-02T00:10:33;13.00;99.90
71672;DHT22;67659;45.554;11.812;2024-03-02T00:13:02;13.10;99.90
71672;DHT22;67659;45.554;11.812;2024-03-02T00:18:11;13.00;99.90
71672;DHT22;67659;45.554;11.812;2024-03-02T00:20:40;13.10;99.90
71672;DHT22;67659;45.554;11.812;2024-03-02T00:23:08;13.10;99.90
71672;DHT22;67659;45.554;11.812;2024-03-02T00:25:51;13.00;99.90
71672;DHT22;67659;45.554;11.812;2024-03-02T00:28:25;13.00;99.90
71672;DHT22;67659;45.554;11.812;2024-03-02T00:33:20;13.10;99.90
71672;DHT22;67659;45.554;11.812;2024-03-02T00:35:47;13.10;99.90
71672;DHT22;67659;45.554;11.812;2024-03-02T00:38:15;13.00;99.90
71672;DHT22;67659;45.554;11.812;2024-03-02T00:40:42;12.90;99.90
71672;DHT22;67659;45.554;11.812;2024-03-02T00:46:12;12.90;99.90
71672;DHT22;67659;45.554;11.812;2024-03-02T00:48:47;13.00;99.90
71672;DHT22;67659;45.554;11.812;2024-03-02T00:51:13;12.90;99.90
71672;DHT22;67659;45.554;11.812;2024-03-02T00:53:39;12.90;99.90
71672;DHT22;67659;45.554;11.812;2024-03-02T00:56:09;12.80;99.90
71672;DHT22;67659;45.554;11.812;2024-03-02T00:58:36;12.90;99.90
71672;DHT22;67659;45.554;11.812;2024-03-02T01:01:02;12.90;99.90
71672;DHT22;67659;45.554;11.812;2024-03-02T01:03:28;12.80;99.90
71672;DHT22;67659;45.554;11.812;2024-03-02T01:05:55;12.80;99.90
71672;DHT22;67659;45.554;11.812;2024-03-02T01:08:21;12.70;99.90
71672;DHT22;67659;45.554;11.812;2024-03-02T01:10:46;12.70;99.90
71672;DHT22;67659;45.554;11.812;2024-03-02T01:13:12;12.70;99.90
71672;DHT22;67659;45.554;11.812;2024-03-02T01:15:38;12.60;99.90
71672;DHT22;67659;45.554;11.812;2024-03-02T01:18:04;12.60;99.90
71672;DHT22;67659;45.554;11.812;2024-03-02T01:20:30;12.60;99.90
71672;DHT22;67659;45.554;11.812;2024-03-02T01:22:56;12.70;99.90
71672;DHT22;67659;45.554;11.812;2024-03-02T01:25:22;12.60;99.90
71672;DHT22;67659;45.554;11.812;2024-03-02T01:27:48;12.50;99.90
71672;DHT22;67659;45.554;11.812;2024-03-02T01:30:14;12.60;99.90
71672;DHT22;67659;45.554;11.812;2024-03-02T01:32:40;12.50;99.90
71672;DHT22;67659;45.554;11.812;2024-03-02T01:35:06;12.50;99.90
71672;DHT22;67659;45.554;11.812;2024-03-02T01:37:33;12.50;99.90
71672;DHT22;67659;45.554;11.812;2024-03-02T01:39:58;12.60;99.90
71672;DHT22;67659;45.554;11.812;2024-03-02T01:42:24;12.60;99.90
71672;DHT22;67659;45.554;11.812;2024-03-02T01:44:51;12.50;99.90
71672;DHT22;67659;45.554;11.812;2024-03-02T01:47:17;12.60;99.90
71672;DHT22;67659;45.554;11.812;2024-03-02T01:49:43;12.60;99.90
71672;DHT22;67659;45.554;11.812;2024-03-02T01:52:08;12.70;99.90
71672;DHT22;67659;45.554;11.812;2024-03-02T01:54:34;12.70;99.90
71672;DHT22;67659;45.554;11.812;2024-03-02T01:57:00;12.70;99.90
71672;DHT22;67659;45.554;11.812;2024-03-02T01:59:27;12.70;99.90
71672;DHT22;67659;45.554;11.812;2024-03-02T02:01:53;12.70;99.90
71672;DHT22;67659;45.554;11.812;2024-03-02T02:04:18;12.70;99.90
71672;DHT22;67659;45.554;11.812;2024-03-02T02:06:47;12.70;99.90
71672;DHT22;67659;45.554;11.812;2024-03-02T02:09:13;12.80;99.90
71672;DHT22;67659;45.554;11.812;2024-03-02T02:11:38;12.70;99.90
71672;DHT22;67659;45.554;11.812;2024-03-02T02:14:06;12.70;99.90
71672;DHT22;67659;45.554;11.812;2024-03-02T02:16:32;12.70;99.90
71672;DHT22;67659;45.554;11.812;2024-03-02T02:18:58;12.70;99.90
71672;DHT22;67659;45.554;11.812;2024-03-02T02:21:24;12.70;99.90
71672;DHT22;67659;45.554;11.812;2024-03-02T02:23:49;12.70;99.90
71672;DHT22;67659;45.554;11.812;2024-03-02T02:26:15;12.70;99.90
71672;DHT22;67659;45.554;11.812;2024-03-02T02:28:41;12.60;99.90
71672;DHT22;67659;45.554;11.812;2024-03-02T02:31:13;12.60;99.90
71672;DHT22;67659;45.554;11.812;2024-03-02T02:33:41;12.60;99.90
71672;DHT22;67659;45.554;11.812;2024-03-02T02:36:08;12.70;99.90
71672;DHT22;67659;45.554;11.812;2024-03-02T02:38:42;12.60;99.90
71672;DHT22;67659;45.554;11.812;2024-03-02T02:41:08;12.50;99.90
71672;DHT22;67659;45.554;11.812;2024-03-02T02:43:34;12.40;99.90
71672;DHT22;67659;45.554;11.812;2024-03-02T02:46:00;12.40;99.90
71672;DHT22;67659;45.554;11.812;2024-03-02T02:48:26;12.40;99.90
71672;DHT22;67659;45.554;11.812;2024-03-02T02:50:52;12.30;99.90
71672;DHT22;67659;45.554;11.812;2024-03-02T02:53:18;12.40;99.90
71672;DHT22;67659;45.554;11.812;2024-03-02T02:55:43;12.40;99.90
71672;DHT22;67659;45.554;11.812;2024-03-02T02:58:09;12.40;99.90
71672;DHT22;67659;45.554;11.812;2024-03-02T03:00:35;12.50;99.90
71672;DHT22;67659;45.554;11.812;2024-03-02T03:03:02;12.40;99.90
71672;DHT22;67659;45.554;11.812;2024-03-02T03:05:28;12.40;99.90
71672;DHT22;67659;45.554;11.812;2024-03-02T03:07:54;12.40;99.90
71672;DHT22;67659;45.554;11.812;2024-03-02T03:10:20;12.40;99.90
71672;DHT22;67659;45.554;11.812;2024-03-02T03:12:49;12.30;99.90
71672;DHT22;67659;45.554;11.812;2024-03-02T03:15:15;12.30;99.90
71672;DHT22;67659;45.554;11.812;2024-03-02T03:17:42;12.20;99.90
71672;DHT22;67659;45.554;11.812;2024-03-02T03:20:09;12.00;99.90
71672;DHT22;67659;45.554;11.812;2024-03-02T03:22:36;12.00;99.90
71672;DHT22;67659;45.554;11.812;2024-03-02T03:25:02;12.30;99.90
71672;DHT22;67659;45.554;11.812;2024-03-02T03:27:29;12.10;99.90
71672;DHT22;67659;45.554;11.812;2024-03-02T03:29:55;12.20;99.90
71672;DHT22;67659;45.554;11.812;2024-03-02T03:32:22;11.90;99.90
71672;DHT22;67659;45.554;11.812;2024-03-02T03:34:48;11.70;99.90
71672;DHT22;67659;45.554;11.812;2024-03-02T03:37:15;11.60;99.90
71672;DHT22;67659;45.554;11.812;2024-03-02T03:39:42;11.40;99.90
71672;DHT22;67659;45.554;11.812;2024-03-02T03:42:08;11.50;99.90
71672;DHT22;67659;45.554;11.812;2024-03-02T03:44:34;11.50;99.90
71672;DHT22;67659;45.554;11.812;2024-03-02T03:47:01;11.40;99.90
71672;DHT22;67659;45.554;11.812;2024-03-02T03:49:29;11.40;99.90
71672;DHT22;67659;45.554;11.812;2024-03-02T03:51:55;11.30;99.90
71672;DHT22;67659;45.554;11.812;2024-03-02T03:54:22;11.20;99.90
71672;DHT22;67659;45.554;11.812;2024-03-02T03:56:51;11.20;99.90
71672;DHT22;67659;45.554;11.812;2024-03-02T03:59:19;11.50;99.90
71672;DHT22;67659;45.554;11.812;2024-03-02T04:01:46;11.70;99.90
71672;DHT22;67659;45.554;11.812;2024-03-02T04:04:13;11.60;99.90
71672;DHT22;67659;45.554;11.812;2024-03-02T04:06:39;11.60;99.90
71672;DHT22;67659;45.554;11.812;2024-03-02T04:09:05;11.70;99.90
71672;DHT22;67659;45.554;11.812;2024-03-02T04:11:32;11.60;99.90
71672;DHT22;67659;45.554;11.812;2024-03-02T04:13:58;11.70;99.90
71672;DHT22;67659;45.554;11.812;2024-03-02T04:16:24;11.60;99.90
71672;DHT22;67659;45.554;11.812;2024-03-02T04:18:50;11.80;99.90
71672;DHT22;67659;45.554;11.812;2024-03-02T04:21:17;11.70;99.90
71672;DHT22;67659;45.554;11.812;2024-03-02T04:23:43;11.80;99.90
71672;DHT22;67659;45.554;11.812;2024-03-02T04:26:10;11.80;99.90
71672;DHT22;67659;45.554;11.812;2024-03-02T04:28:36;11.80;99.90
71672;DHT22;67659;45.554;11.812;2024-03-02T04:31:02;11.90;99.90
71672;DHT22;67659;45.554;11.812;2024-03-02T04:33:28;12.00;99.90
71672;DHT22;67659;45.554;11.812;2024-03-02T04:35:54;11.80;99.90
71672;DHT22;67659;45.554;11.812;2024-03-02T04:38:20;11.90;99.90
71672;DHT22;67659;45.554;11.812;2024-03-02T04:40:47;12.10;99.90
71672;DHT22;67659;45.554;11.812;2024-03-02T04:43:13;11.90;99.90
71672;DHT22;67659;45.554;11.812;2024-03-02T04:45:42;12.00;99.90
71672;DHT22;67659;45.554;11.812;2024-03-02T04:48:08;11.90;99.90
71672;DHT22;67659;45.554;11.812;2024-03-02T04:50:34;11.90;99.90
71672;DHT22;67659;45.554;11.812;2024-03-02T04:53:00;11.90;99.90
71672;DHT22;67659;45.554;11.812;2024-03-02T04:55:26;11.90;99.90
71672;DHT22;67659;45.554;11.812;2024-03-02T04:57:55;11.80;99.90
71672;DHT22;67659;45.554;11.812;2024-03-02T05:00:21;11.90;99.90
71672;DHT22;67659;45.554;11.812;2024-03-02T05:02:47;12.00;99.90
71672;DHT22;67659;45.554;11.812;2024-03-02T05:05:13;12.00;99.90
71672;DHT22;67659;45.554;11.812;2024-03-02T05:07:41;11.90;99.90
71672;DHT22;67659;45.554;11.812;2024-03-02T05:10:11;11.90;99.90
71672;DHT22;67659;45.554;11.812;2024-03-02T05:12:39;11.90;99.90
71672;DHT22;67659;45.554;11.812;2024-03-02T05:15:11;12.10;99.90
71672;DHT22;67659;45.554;11.812;2024-03-02T05:17:37;12.00;99.90
71672;DHT22;67659;45.554;11.812;2024-03-02T05:20:04;12.10;99.90
71672;DHT22;67659;45.554;11.812;2024-03-02T05:22:30;11.90;99.90
71672;DHT22;67659;45.554;11.812;2024-03-02T05:24:56;11.90;99.90
71672;DHT22;67659;45.554;11.812;2024-03-02T05:27:22;12.00;99.90
71672;DHT22;67659;45.554;11.812;2024-03-02T05:29:48;12.00;99.90
71672;DHT22;67659;45.554;11.812;2024-03-02T05:32:14;12.00;99.90
71672;DHT22;67659;45.554;11.812;2024-03-02T05:34:40;11.90;99.90
71672;DHT22;67659;45.554;11.812;2024-03-02T05:37:07;12.00;99.90
71672;DHT22;67659;45.554;11.812;2024-03-02T05:39:34;11.80;99.90
71672;DHT22;67659;45.554;11.812;2024-03-02T05:42:04;11.70;99.90
71672;DHT22;67659;45.554;11.812;2024-03-02T05:44:31;11.80;99.90
71672;DHT22;67659;45.554;11.812;2024-03-02T05:46:58;11.70;99.90
71672;DHT22;67659;45.554;11.812;2024-03-02T05:49:25;11.80;99.90
71672;DHT22;67659;45.554;11.812;2024-03-02T05:51:54;11.70;99.90
71672;DHT22;67659;45.554;11.812;2024-03-02T05:54:21;11.80;99.90
71672;DHT22;67659;45.554;11.812;2024-03-02T05:56:48;11.70;99.90
71672;DHT22;67659;45.554;11.812;2024-03-02T05:59:14;11.70;99.90
71672;DHT22;67659;45.554;11.812;2024-03-02T06:01:46;11.80;99.90
71672;DHT22;67659;45.554;11.812;2024-03-02T06:04:17;11.80;99.90
71672;DHT22;67659;45.554;11.812;2024-03-02T06:06:43;12.00;99.90
71672;DHT22;67659;45.554;11.812;2024-03-02T06:09:10;12.20;99.90
71672;DHT22;67659;45.554;11.812;2024-03-02T06:11:39;12.10;99.90
71672;DHT22;67659;45.554;11.812;2024-03-02T06:14:05;12.10;99.90
71672;DHT22;67659;45.554;11.812;2024-03-02T06:16:32;12.40;99.90
71672;DHT22;67659;45.554;11.812;2024-03-02T06:19:00;12.30;99.90
71672;DHT22;67659;45.554;11.812;2024-03-02T06:21:27;12.30;99.90
71672;DHT22;67659;45.554;11.812;2024-03-02T06:23:53;12.40;99.90
71672;DHT22;67659;45.554;11.812;2024-03-02T06:26:19;12.50;99.90
71672;DHT22;67659;45.554;11.812;2024-03-02T06:28:46;12.50;99.90
71672;DHT22;67659;45.554;11.812;2024-03-02T06:31:12;12.50;99.90
71672;DHT22;67659;45.554;11.812;2024-03-02T06:33:38;12.70;99.90
71672;DHT22;67659;45.554;11.812;2024-03-02T06:36:04;12.70;99.90
71672;DHT22;67659;45.554;11.812;2024-03-02T06:38:30;12.70;99.90
71672;DHT22;67659;45.554;11.812;2024-03-02T06:41:00;12.60;99.90
71672;DHT22;67659;45.554;11.812;2024-03-02T06:43:25;12.70;99.90
71672;DHT22;67659;45.554;11.812;2024-03-02T06:45:51;12.70;99.90
71672;DHT22;67659;45.554;11.812;2024-03-02T06:48:18;12.80;99.90
71672;DHT22;67659;45.554;11.812;2024-03-02T06:50:47;12.80;99.90
71672;DHT22;67659;45.554;11.812;2024-03-02T06:53:16;12.80;99.90
71672;DHT22;67659;45.554;11.812;2024-03-02T06:55:45;12.80;99.90
71672;DHT22;67659;45.554;11.812;2024-03-02T06:58:12;12.90;99.90
71672;DHT22;67659;45.554;11.812;2024-03-02T07:00:38;13.00;99.90
71672;DHT22;67659;45.554;11.812;2024-03-02T07:03:04;12.90;99.90
71672;DHT22;67659;45.554;11.812;2024-03-02T07:05:30;13.10;99.90
71672;DHT22;67659;45.554;11.812;2024-03-02T07:07:56;13.10;99.90
71672;DHT22;67659;45.554;11.812;2024-03-02T07:10:22;13.20;99.90
71672;DHT22;67659;45.554;11.812;2024-03-02T07:12:48;13.40;99.90
71672;DHT22;67659;45.554;11.812;2024-03-02T07:15:14;13.80;99.90
71672;DHT22;67659;45.554;11.812;2024-03-02T07:17:52;13.60;99.90
71672;DHT22;67659;45.554;11.812;2024-03-02T07:20:18;13.90;99.90
71672;DHT22;67659;45.554;11.812;2024-03-02T07:22:43;14.00;99.90
71672;DHT22;67659;45.554;11.812;2024-03-02T07:25:09;14.00;99.90
71672;DHT22;67659;45.554;11.812;2024-03-02T07:27:35;14.30;99.90
71672;DHT22;67659;45.554;11.812;2024-03-02T07:30:02;14.40;99.90
71672;DHT22;67659;45.554;11.812;2024-03-02T07:32:28;14.70;99.90
71672;DHT22;67659;45.554;11.812;2024-03-02T07:34:54;14.70;99.90
71672;DHT22;67659;45.554;11.812;2024-03-02T07:37:22;14.90;99.90
71672;DHT22;67659;45.554;11.812;2024-03-02T07:39:48;14.80;99.90
71672;DHT22;67659;45.554;11.812;2024-03-02T07:42:14;14.60;99.90
71672;DHT22;67659;45.554;11.812;2024-03-02T07:44:40;14.50;99.90
71672;DHT22;67659;45.554;11.812;2024-03-02T07:47:06;14.40;99.90
71672;DHT22;67659;45.554;11.812;2024-03-02T07:49:32;14.30;99.90
71672;DHT22;67659;45.554;11.812;2024-03-02T07:51:58;14.20;99.90
71672;DHT22;67659;45.554;11.812;2024-03-02T07:54:24;14.10;99.90
71672;DHT22;67659;45.554;11.812;2024-03-02T07:56:50;14.00;99.90
71672;DHT22;67659;45.554;11.812;2024-03-02T07:59:16;14.10;99.90
71672;DHT22;67659;45.554;11.812;2024-03-02T08:01:42;14.00;99.90
71672;DHT22;67659;45.554;11.812;2024-03-02T08:04:08;14.10;99.90
71672;DHT22;67659;45.554;11.812;2024-03-02T08:06:34;14.10;99.90
71672;DHT22;67659;45.554;11.812;2024-03-02T08:09:01;14.00;99.90
71672;DHT22;67659;45.554;11.812;2024-03-02T08:11:27;14.00;99.90
71672;DHT22;67659;45.554;11.812;2024-03-02T08:13:53;14.10;99.90
71672;DHT22;67659;45.554;11.812;2024-03-02T08:16:22;13.90;99.90
71672;DHT22;67659;45.554;11.812;2024-03-02T08:18:49;14.00;99.90
71672;DHT22;67659;45.554;11.812;2024-03-02T08:21:15;14.10;99.90
71672;DHT22;67659;45.554;11.812;2024-03-02T08:23:43;14.00;99.90
71672;DHT22;67659;45.554;11.812;2024-03-02T08:26:09;14.00;99.90
71672;DHT22;67659;45.554;11.812;2024-03-02T08:28:36;14.00;99.90
71672;DHT22;67659;45.554;11.812;2024-03-02T08:31:07;14.00;99.90
71672;DHT22;67659;45.554;11.812;2024-03-02T08:33:33;14.20;99.90
71672;DHT22;67659;45.554;11.812;2024-03-02T08:35:59;14.10;99.90
71672;DHT22;67659;45.554;11.812;2024-03-02T08:38:26;14.00;99.90
71672;DHT22;67659;45.554;11.812;2024-03-02T08:40:52;14.00;99.90
71672;DHT22;67659;45.554;11.812;2024-03-02T08:43:18;14.00;99.90
71672;DHT22;67659;45.554;11.812;2024-03-02T08:45:44;13.90;99.90
71672;DHT22;67659;45.554;11.812;2024-03-02T08:48:10;13.70;99.90
71672;DHT22;67659;45.554;11.812;2024-03-02T08:50:36;13.60;99.90
71672;DHT22;67659;45.554;11.812;2024-03-02T08:53:03;13.80;99.90
71672;DHT22;67659;45.554;11.812;2024-03-02T08:55:29;13.80;99.90
71672;DHT22;67659;45.554;11.812;2024-03-02T08:57:55;13.60;99.90
71672;DHT22;67659;45.554;11.812;2024-03-02T09:00:22;13.50;99.90
71672;DHT22;67659;45.554;11.812;2024-03-02T09:02:48;13.60;99.90
71672;DHT22;67659;45.554;11.812;2024-03-02T09:05:14;13.50;99.90
71672;DHT22;67659;45.554;11.812;2024-03-02T09:07:40;13.50;99.90
71672;DHT22;67659;45.554;11.812;2024-03-02T09:10:07;13.60;99.90
71672;DHT22;67659;45.554;11.812;2024-03-02T09:12:33;13.60;99.90
71672;DHT22;67659;45.554;11.812;2024-03-02T09:15:00;13.50;99.90
71672;DHT22;67659;45.554;11.812;2024-03-02T09:17:27;13.60;99.90
71672;DHT22;67659;45.554;11.812;2024-03-02T09:19:52;13.90;99.90
71672;DHT22;67659;45.554;11.812;2024-03-02T09:22:19;13.90;99.90
71672;DHT22;67659;45.554;11.812;2024-03-02T09:24:45;14.30;99.90
71672;DHT22;67659;45.554;11.812;2024-03-02T09:27:10;14.40;99.90
71672;DHT22;67659;45.554;11.812;2024-03-02T09:29:37;14.30;99.90
71672;DHT22;67659;45.554;11.812;2024-03-02T09:32:03;14.30;99.90
71672;DHT22;67659;45.554;11.812;2024-03-02T09:34:29;14.40;99.90
71672;DHT22;67659;45.554;11.812;2024-03-02T09:36:55;14.60;99.90
71672;DHT22;67659;45.554;11.812;2024-03-02T09:39:21;14.50;99.90
71672;DHT22;67659;45.554;11.812;2024-03-02T09:41:48;14.70;99.90
71672;DHT22;67659;45.554;11.812;2024-03-02T09:44:14;14.80;99.90
71672;DHT22;67659;45.554;11.812;2024-03-02T09:46:40;14.80;99.90
71672;DHT22;67659;45.554;11.812;2024-03-02T09:49:11;14.80;99.90
71672;DHT22;67659;45.554;11.812;2024-03-02T09:51:37;14.90;99.90
71672;DHT22;67659;45.554;11.812;2024-03-02T09:54:03;14.90;99.90
71672;DHT22;67659;45.554;11.812;2024-03-02T09:56:29;15.20;99.90
71672;DHT22;67659;45.554;11.812;2024-03-02T09:58:55;15.20;99.90
71672;DHT22;67659;45.554;11.812;2024-03-02T10:01:21;15.20;99.90
71672;DHT22;67659;45.554;11.812;2024-03-02T10:03:47;15.30;99.90
71672;DHT22;67659;45.554;11.812;2024-03-02T10:06:23;15.50;99.90
71672;DHT22;67659;45.554;11.812;2024-03-02T10:08:50;15.40;99.90
71672;DHT22;67659;45.554;11.812;2024-03-02T10:11:33;15.20;99.90
71672;DHT22;67659;45.554;11.812;2024-03-02T10:14:06;15.20;99.90
71672;DHT22;67659;45.554;11.812;2024-03-02T10:16:39;15.10;99.90
71672;DHT22;67659;45.554;11.812;2024-03-02T10:19:22;15.30;99.90
71672;DHT22;67659;45.554;11.812;2024-03-02T10:21:53;15.30;99.90
71672;DHT22;67659;45.554;11.812;2024-03-02T10:24:20;15.20;99.90
71672;DHT22;67659;45.554;11.812;2024-03-02T10:26:47;15.10;99.90
71672;DHT22;67659;45.554;11.812;2024-03-02T10:29:13;14.90;99.90
71672;DHT22;67659;45.554;11.812;2024-03-02T10:31:40;14.90;99.90
71672;DHT22;67659;45.554;11.812;2024-03-02T10:34:07;15.00;99.90
71672;DHT22;67659;45.554;11.812;2024-03-02T10:36:37;14.80;99.90
71672;DHT22;67659;45.554;11.812;2024-03-02T10:39:04;14.80;99.90
71672;DHT22;67659;45.554;11.812;2024-03-02T10:41:35;14.80;99.90
71672;DHT22;67659;45.554;11.812;2024-03-02T10:44:08;15.00;99.90
71672;DHT22;67659;45.554;11.812;2024-03-02T10:46:35;14.90;99.90
71672;DHT22;67659;45.554;11.812;2024-03-02T10:49:03;14.90;99.90
71672;DHT22;67659;45.554;11.812;2024-03-02T10:51:31;14.80;99.90
71672;DHT22;67659;45.554;11.812;2024-03-02T10:53:58;14.60;99.90
71672;DHT22;67659;45.554;11.812;2024-03-02T11:01:32;14.30;99.90
71672;DHT22;67659;45.554;11.812;2024-03-02T11:03:59;14.30;99.90
71672;DHT22;67659;45.554;11.812;2024-03-02T11:06:28;14.50;99.90
71672;DHT22;67659;45.554;11.812;2024-03-02T11:08:58;14.60;99.90
71672;DHT22;67659;45.554;11.812;2024-03-02T11:11:30;14.60;99.90
71672;DHT22;67659;45.554;11.812;2024-03-02T11:14:01;14.60;99.90
71672;DHT22;67659;45.554;11.812;2024-03-02T11:16:38;14.70;99.90
71672;DHT22;67659;45.554;11.812;2024-03-02T11:19:13;14.60;99.90
71672;DHT22;67659;45.554;11.812;2024-03-02T11:21:40;14.50;99.90
71672;DHT22;67659;45.554;11.812;2024-03-02T11:26:50;14.60;99.90
71672;DHT22;67659;45.554;11.812;2024-03-02T11:32:02;14.80;99.90
71672;DHT22;67659;45.554;11.812;2024-03-02T11:34:31;15.10;99.90
71672;DHT22;67659;45.554;11.812;2024-03-02T11:36:57;15.20;99.90
71672;DHT22;67659;45.554;11.812;2024-03-02T11:39:26;15.00;99.90
71672;DHT22;67659;45.554;11.812;2024-03-02T11:41:52;15.00;99.90
71672;DHT22;67659;45.554;11.812;2024-03-02T11:44:18;15.10;99.90
71672;DHT22;67659;45.554;11.812;2024-03-02T11:47:06;15.00;99.90
71672;DHT22;67659;45.554;11.812;2024-03-02T11:49:44;15.00;99.90
71672;DHT22;67659;45.554;11.812;2024-03-02T11:52:14;14.90;99.90
71672;DHT22;67659;45.554;11.812;2024-03-02T11:54:42;15.00;99.90
71672;DHT22;67659;45.554;11.812;2024-03-02T11:57:18;14.90;99.90
71672;DHT22;67659;45.554;11.812;2024-03-02T11:59:45;14.90;99.90
71672;DHT22;67659;45.554;11.812;2024-03-02T12:02:19;14.70;99.90
71672;DHT22;67659;45.554;11.812;2024-03-02T12:04:47;14.80;99.90
71672;DHT22;67659;45.554;11.812;2024-03-02T12:07:19;14.80;99.90
71672;DHT22;67659;45.554;11.812;2024-03-02T12:09:59;14.50;99.90
71672;DHT22;67659;45.554;11.812;2024-03-02T12:12:26;14.50;99.90
71672;DHT22;67659;45.554;11.812;2024-03-02T12:14:53;14.40;99.90
71672;DHT22;67659;45.554;11.812;2024-03-02T12:17:21;14.40;99.90
71672;DHT22;67659;45.554;11.812;2024-03-02T12:19:47;14.40;99.90
71672;DHT22;67659;45.554;11.812;2024-03-02T12:22:13;14.40;99.90
71672;DHT22;67659;45.554;11.812;2024-03-02T12:24:39;14.30;99.90
71672;DHT22;67659;45.554;11.812;2024-03-02T12:27:06;14.30;99.90
71672;DHT22;67659;45.554;11.812;2024-03-02T12:29:32;14.20;99.90
71672;DHT22;67659;45.554;11.812;2024-03-02T12:31:59;14.20;99.90
71672;DHT22;67659;45.554;11.812;2024-03-02T12:34:27;14.20;99.90
71672;DHT22;67659;45.554;11.812;2024-03-02T12:36:53;14.10;99.90
71672;DHT22;67659;45.554;11.812;2024-03-02T12:39:20;14.10;99.90
71672;DHT22;67659;45.554;11.812;2024-03-02T12:41:47;14.00;99.90
71672;DHT22;67659;45.554;11.812;2024-03-02T12:44:13;14.10;99.90
71672;DHT22;67659;45.554;11.812;2024-03-02T12:46:39;14.20;99.90
71672;DHT22;67659;45.554;11.812;2024-03-02T12:49:08;14.20;99.90
71672;DHT22;67659;45.554;11.812;2024-03-02T12:51:35;14.20;99.90
71672;DHT22;67659;45.554;11.812;2024-03-02T12:54:02;14.40;99.90
71672;DHT22;67659;45.554;11.812;2024-03-02T12:56:29;14.40;99.90
71672;DHT22;67659;45.554;11.812;2024-03-02T12:58:55;14.60;99.90
71672;DHT22;67659;45.554;11.812;2024-03-02T13:01:21;14.60;99.90
71672;DHT22;67659;45.554;11.812;2024-03-02T13:03:51;14.70;99.90
71672;DHT22;67659;45.554;11.812;2024-03-02T13:06:18;14.90;99.90
71672;DHT22;67659;45.554;11.812;2024-03-02T13:08:45;14.80;99.90
71672;DHT22;67659;45.554;11.812;2024-03-02T13:11:12;15.10;99.90
71672;DHT22;67659;45.554;11.812;2024-03-02T13:13:40;15.10;99.90
71672;DHT22;67659;45.554;11.812;2024-03-02T13:16:10;14.80;99.90
71672;DHT22;67659;45.554;11.812;2024-03-02T13:18:36;14.90;99.90
71672;DHT22;67659;45.554;11.812;2024-03-02T13:21:02;14.90;99.90
71672;DHT22;67659;45.554;11.812;2024-03-02T13:23:28;14.60;99.90
71672;DHT22;67659;45.554;11.812;2024-03-02T13:25:57;14.50;99.90
71672;DHT22;67659;45.554;11.812;2024-03-02T13:28:24;14.50;99.90
71672;DHT22;67659;45.554;11.812;2024-03-02T13:30:50;14.40;99.90
71672;DHT22;67659;45.554;11.812;2024-03-02T13:33:16;14.20;99.90
71672;DHT22;67659;45.554;11.812;2024-03-02T13:35:50;14.20;99.90
71672;DHT22;67659;45.554;11.812;2024-03-02T13:38:19;14.10;99.90
71672;DHT22;67659;45.554;11.812;2024-03-02T13:40:46;14.00;99.90
71672;DHT22;67659;45.554;11.812;2024-03-02T13:43:12;14.00;99.90
71672;DHT22;67659;45.554;11.812;2024-03-02T13:45:38;13.90;99.90
71672;DHT22;67659;45.554;11.812;2024-03-02T13:48:05;14.00;99.90
71672;DHT22;67659;45.554;11.812;2024-03-02T13:50:31;14.00;99.90
71672;DHT22;67659;45.554;11.812;2024-03-02T13:52:56;14.00;99.90
71672;DHT22;67659;45.554;11.812;2024-03-02T13:55:22;14.10;99.90
71672;DHT22;67659;45.554;11.812;2024-03-02T13:57:48;14.20;99.90
71672;DHT22;67659;45.554;11.812;2024-03-02T14:00:18;14.40;99.90
71672;DHT22;67659;45.554;11.812;2024-03-02T14:02:45;14.40;99.90
71672;DHT22;67659;45.554;11.812;2024-03-02T14:05:12;14.60;99.90
71672;DHT22;67659;45.554;11.812;2024-03-02T14:07:39;14.70;99.90
71672;DHT22;67659;45.554;11.812;2024-03-02T14:10:06;14.50;99.90
71672;DHT22;67659;45.554;11.812;2024-03-02T14:12:32;14.50;99.90
71672;DHT22;67659;45.554;11.812;2024-03-02T14:14:58;14.50;99.90
71672;DHT22;67659;45.554;11.812;2024-03-02T14:17:25;14.50;99.90
71672;DHT22;67659;45.554;11.812;2024-03-02T14:19:51;14.40;99.90
71672;DHT22;67659;45.554;11.812;2024-03-02T14:22:19;14.30;99.90
71672;DHT22;67659;45.554;11.812;2024-03-02T14:24:45;14.20;99.90
71672;DHT22;67659;45.554;11.812;2024-03-02T14:27:11;14.30;99.90
71672;DHT22;67659;45.554;11.812;2024-03-02T14:29:38;14.50;99.90
71672;DHT22;67659;45.554;11.812;2024-03-02T14:32:05;14.50;99.90
71672;DHT22;67659;45.554;11.812;2024-03-02T14:34:32;14.60;99.90
71672;DHT22;67659;45.554;11.812;2024-03-02T14:36:59;14.60;99.90
71672;DHT22;67659;45.554;11.812;2024-03-02T14:39:26;14.50;99.90
71672;DHT22;67659;45.554;11.812;2024-03-02T14:41:52;14.50;99.90
71672;DHT22;67659;45.554;11.812;2024-03-02T14:44:18;14.60;99.90
71672;DHT22;67659;45.554;11.812;2024-03-02T14:46:47;14.60;99.90
71672;DHT22;67659;45.554;11.812;2024-03-02T14:49:13;14.80;99.90
71672;DHT22;67659;45.554;11.812;2024-03-02T14:51:39;14.90;99.90
71672;DHT22;67659;45.554;11.812;2024-03-02T14:54:05;14.80;99.90
71672;DHT22;67659;45.554;11.812;2024-03-02T14:56:31;14.90;99.90
71672;DHT22;67659;45.554;11.812;2024-03-02T15:30:57;15.00;99.90
71672;DHT22;67659;45.554;11.812;2024-03-02T15:33:23;14.60;99.90
71672;DHT22;67659;45.554;11.812;2024-03-02T15:35:55;14.60;99.90
71672;DHT22;67659;45.554;11.812;2024-03-02T15:38:21;14.60;99.90
71672;DHT22;67659;45.554;11.812;2024-03-02T15:40:47;14.50;99.90
71672;DHT22;67659;45.554;11.812;2024-03-02T15:43:14;14.50;99.90
71672;DHT22;67659;45.554;11.812;2024-03-02T15:45:41;14.50;99.90
71672;DHT22;67659;45.554;11.812;2024-03-02T15:48:08;14.40;99.90
71672;DHT22;67659;45.554;11.812;2024-03-02T15:50:35;14.40;99.90
71672;DHT22;67659;45.554;11.812;2024-03-02T15:53:03;14.40;99.90
71672;DHT22;67659;45.554;11.812;2024-03-02T15:55:32;14.50;99.90
71672;DHT22;67659;45.554;11.812;2024-03-02T15:58:01;14.40;99.90
71672;DHT22;67659;45.554;11.812;2024-03-02T16:00:31;14.40;99.90
71672;DHT22;67659;45.554;11.812;2024-03-02T16:02:57;14.40;99.90
71672;DHT22;67659;45.554;11.812;2024-03-02T16:05:23;14.30;99.90